createdAt,value
2022-09-18T00:01:18.833Z,0.30
2022-09-18T00:03:48.007Z,0.30
2022-09-18T00:06:17.212Z,0.30
2022-09-18T00:08:45.035Z,0.30
2022-09-18T00:11:14.126Z,0.20
2022-09-18T00:13:42.987Z,0.30
2022-09-18T00:16:13.758Z,0.45
2022-09-18T00:18:41.978Z,0.30
2022-09-18T00:21:13.601Z,0.30
2022-09-18T00:23:42.109Z,0.30
2022-09-18T00:26:11.066Z,0.30
2022-09-18T00:28:38.803Z,0.30
2022-09-18T00:31:07.033Z,0.30
2022-09-18T00:33:34.804Z,0.40
2022-09-18T00:36:03.448Z,0.30
2022-09-18T00:38:32.897Z,0.28
2022-09-18T00:41:02.054Z,0.28
2022-09-18T00:43:31.863Z,0.40
2022-09-18T00:46:02.100Z,0.30
2022-09-18T00:48:38.767Z,0.35
2022-09-18T00:51:06.247Z,0.30
2022-09-18T00:53:36.931Z,0.40
2022-09-18T00:56:05.232Z,0.30
2022-09-18T00:58:32.678Z,0.47
2022-09-18T01:01:01.323Z,0.30
2022-09-18T01:03:30.002Z,0.30
2022-09-18T01:06:10.397Z,0.45
2022-09-18T01:08:49.575Z,0.30
2022-09-18T01:11:29.934Z,0.35
2022-09-18T01:14:09.547Z,0.30
2022-09-18T01:16:47.014Z,0.63
2022-09-18T01:19:31.559Z,0.40
2022-09-18T01:22:14.901Z,0.43
2022-09-18T01:25:15.495Z,0.40
2022-09-18T01:27:57.335Z,0.30
2022-09-18T01:30:25.263Z,0.40
2022-09-18T01:32:58.025Z,0.40
2022-09-18T01:35:41.010Z,0.40
2022-09-18T01:38:14.804Z,0.47
2022-09-18T01:40:48.456Z,0.52
2022-09-18T01:43:19.918Z,0.50
2022-09-18T01:45:49.190Z,0.50
2022-09-18T01:48:23.041Z,0.50
2022-09-18T01:50:55.505Z,0.50
2022-09-18T01:53:28.286Z,0.50
2022-09-18T01:56:00.492Z,0.50
2022-09-18T01:58:30.484Z,0.60
2022-09-18T02:01:02.144Z,0.50
2022-09-18T02:03:34.231Z,0.60
2022-09-18T02:06:04.845Z,0.60
2022-09-18T02:08:39.349Z,0.50
2022-09-18T02:11:11.069Z,0.40
2022-09-18T02:13:43.513Z,0.50
2022-09-18T02:16:18.828Z,0.50
2022-09-18T02:18:52.108Z,0.40
2022-09-18T02:21:23.573Z,0.50
2022-09-18T02:23:52.219Z,0.30
2022-09-18T02:26:20.552Z,0.40
2022-09-18T02:28:51.432Z,0.40
2022-09-18T02:31:18.859Z,0.40
2022-09-18T02:33:46.243Z,0.40
2022-09-18T02:36:31.406Z,0.30
2022-09-18T02:39:09.404Z,0.40
2022-09-18T02:41:46.843Z,0.30
2022-09-18T02:44:20.685Z,0.30
2022-09-18T02:47:01.107Z,0.30
2022-09-18T02:49:38.380Z,0.30
2022-09-18T02:52:09.625Z,0.40
2022-09-18T02:54:42.886Z,0.30
2022-09-18T02:57:15.294Z,0.40
2022-09-18T02:59:48.583Z,0.30
2022-09-18T03:02:16.209Z,0.30
2022-09-18T03:04:44.945Z,0.40
2022-09-18T03:07:14.584Z,0.40
2022-09-18T03:09:42.087Z,0.40
2022-09-18T03:12:09.686Z,0.40
2022-09-18T03:14:37.012Z,0.60
2022-09-18T03:17:06.240Z,0.60
2022-09-18T03:19:33.651Z,0.60
2022-09-18T03:22:01.000Z,0.70
2022-09-18T03:24:28.498Z,0.60
2022-09-18T03:26:56.308Z,0.60
2022-09-18T03:29:23.627Z,0.50
2022-09-18T03:31:50.996Z,0.50
2022-09-18T03:34:19.707Z,0.47
2022-09-18T03:36:47.912Z,0.40
2022-09-18T03:39:16.341Z,0.65
2022-09-18T03:41:43.948Z,0.40
2022-09-18T03:44:11.911Z,0.50
2022-09-18T03:46:39.338Z,0.40
2022-09-18T03:49:07.064Z,0.50
2022-09-18T03:51:35.726Z,0.50
2022-09-18T03:54:03.230Z,0.60
2022-09-18T03:56:30.891Z,0.60
2022-09-18T03:58:58.270Z,0.40
2022-09-18T04:01:25.649Z,0.50
2022-09-18T04:03:53.021Z,0.60
2022-09-18T04:06:20.339Z,0.50
2022-09-18T04:08:49.955Z,0.60
2022-09-18T04:11:17.357Z,0.68
2022-09-18T04:13:46.294Z,0.60
2022-09-18T04:16:13.697Z,0.60
2022-09-18T04:18:41.186Z,0.77
2022-09-18T04:21:08.544Z,0.70
2022-09-18T04:23:36.168Z,0.73
2022-09-18T04:26:09.314Z,0.63
2022-09-18T04:28:37.078Z,0.70
2022-09-18T04:31:04.874Z,0.57
2022-09-18T04:33:32.278Z,0.77
2022-09-18T04:35:59.612Z,0.47
2022-09-18T04:38:28.275Z,0.70
2022-09-18T04:40:57.178Z,0.60
2022-09-18T04:43:26.663Z,0.80
2022-09-18T04:45:54.276Z,0.68
2022-09-18T04:48:22.635Z,0.70
2022-09-18T04:50:50.428Z,0.60
2022-09-18T04:53:17.971Z,0.70
2022-09-18T04:55:45.500Z,0.60
2022-09-18T04:58:13.620Z,0.50
2022-09-18T05:00:42.816Z,0.50
2022-09-18T05:03:10.860Z,0.60
2022-09-18T05:05:38.186Z,0.60
2022-09-18T05:08:05.672Z,0.55
2022-09-18T05:10:33.948Z,0.60
2022-09-18T05:13:01.617Z,0.55
2022-09-18T05:15:28.996Z,0.70
2022-09-18T05:18:01.634Z,0.50
2022-09-18T05:20:29.497Z,0.45
2022-09-18T05:22:57.062Z,0.65
2022-09-18T05:25:25.067Z,0.60
2022-09-18T05:27:56.378Z,0.40
2022-09-18T05:30:24.842Z,0.60
2022-09-18T05:32:59.531Z,0.50
2022-09-18T05:35:29.986Z,0.65
2022-09-18T05:37:57.791Z,0.47
2022-09-18T05:40:26.595Z,0.50
2022-09-18T05:42:54.408Z,0.50
2022-09-18T05:45:22.851Z,0.50
2022-09-18T05:47:55.098Z,0.40
2022-09-18T05:50:23.482Z,0.50
2022-09-18T05:52:59.262Z,0.60
2022-09-18T05:55:31.602Z,0.50
2022-09-18T05:58:00.846Z,0.57
2022-09-18T06:00:30.593Z,0.60
2022-09-18T06:03:00.205Z,0.50
2022-09-18T06:05:32.054Z,0.50
2022-09-18T06:08:01.649Z,0.40
2022-09-18T06:10:30.305Z,0.50
2022-09-18T06:13:02.278Z,0.40
2022-09-18T06:15:29.627Z,0.50
2022-09-18T06:17:56.998Z,0.57
2022-09-18T06:20:24.366Z,0.45
2022-09-18T06:22:51.726Z,0.50
2022-09-18T06:25:22.024Z,0.50
2022-09-18T06:27:50.410Z,0.50
2022-09-18T06:30:17.937Z,0.50
2022-09-18T06:32:45.287Z,0.50
2022-09-18T06:35:12.711Z,0.35
2022-09-18T06:37:40.032Z,0.50
2022-09-18T06:40:07.879Z,0.47
2022-09-18T06:42:36.635Z,0.52
2022-09-18T06:45:04.266Z,0.50
2022-09-18T06:47:31.621Z,0.50
2022-09-18T06:49:58.950Z,0.55
2022-09-18T06:52:26.314Z,0.50
2022-09-18T06:54:53.664Z,0.43
2022-09-18T06:57:21.004Z,0.50
2022-09-18T06:59:49.647Z,0.50
2022-09-18T07:02:19.585Z,0.50
2022-09-18T07:04:47.719Z,0.45
2022-09-18T07:07:15.188Z,0.45
2022-09-18T07:09:42.546Z,0.47
2022-09-18T07:12:09.938Z,0.52
2022-09-18T07:14:37.265Z,0.40
2022-09-18T07:17:12.045Z,0.40
2022-09-18T07:19:41.506Z,0.50
2022-09-18T07:22:08.838Z,0.50
2022-09-18T07:24:37.038Z,0.40
2022-09-18T07:27:04.584Z,0.40
2022-09-18T07:29:32.708Z,0.50
2022-09-18T07:32:00.157Z,0.40
2022-09-18T07:34:28.835Z,0.60
2022-09-18T07:36:56.156Z,0.50
2022-09-18T07:39:23.788Z,0.40
2022-09-18T07:41:51.120Z,0.35
2022-09-18T07:44:18.705Z,0.40
2022-09-18T07:46:46.117Z,0.50
2022-09-18T07:49:13.598Z,0.40
2022-09-18T07:51:42.254Z,0.50
2022-09-18T07:54:09.580Z,0.40
2022-09-18T07:56:37.055Z,0.55
2022-09-18T07:59:04.467Z,0.55
2022-09-18T08:01:34.421Z,0.40
2022-09-18T08:04:02.403Z,0.50
2022-09-18T08:06:29.727Z,0.50
2022-09-18T08:09:00.260Z,0.40
2022-09-18T08:11:27.647Z,0.60
2022-09-18T08:13:54.989Z,0.65
2022-09-18T08:16:22.624Z,0.63
2022-09-18T08:18:50.127Z,0.63
2022-09-18T08:21:18.480Z,0.70
2022-09-18T08:23:46.220Z,0.70
2022-09-18T08:26:17.667Z,0.50
2022-09-18T08:28:48.950Z,0.40
2022-09-18T08:31:17.029Z,0.50
2022-09-18T08:33:44.410Z,0.30
2022-09-18T08:36:11.913Z,0.30
2022-09-18T08:38:39.249Z,0.35
2022-09-18T08:41:24.446Z,0.32
2022-09-18T08:44:02.350Z,0.40
2022-09-18T08:46:36.538Z,0.40
2022-09-18T08:49:16.147Z,0.50
2022-09-18T08:51:50.094Z,0.32
2022-09-18T08:54:23.622Z,0.35
2022-09-18T08:56:53.200Z,0.40
2022-09-18T08:59:30.540Z,0.30
2022-09-18T09:02:15.446Z,0.30
2022-09-18T09:04:43.557Z,0.40
2022-09-18T09:07:24.591Z,0.50
2022-09-18T09:10:12.880Z,0.40
2022-09-18T09:12:50.290Z,0.60
2022-09-18T09:15:29.262Z,0.35
2022-09-18T09:18:06.575Z,0.40
2022-09-18T09:20:45.711Z,0.40
2022-09-18T09:23:20.427Z,0.30
2022-09-18T09:25:59.822Z,0.47
2022-09-18T09:28:33.628Z,0.50
2022-09-18T09:31:05.523Z,0.50
2022-09-18T09:33:38.753Z,0.30
2022-09-18T09:36:09.232Z,0.30
2022-09-18T09:38:46.131Z,0.38
2022-09-18T09:41:21.684Z,0.45
2022-09-18T09:43:59.611Z,0.40
2022-09-18T09:46:44.558Z,0.30
2022-09-18T09:49:17.036Z,0.40
2022-09-18T09:51:51.722Z,0.50
2022-09-18T09:54:19.224Z,0.50
2022-09-18T09:56:53.936Z,0.40
2022-09-18T09:59:31.716Z,0.40
2022-09-18T10:02:02.978Z,0.40
2022-09-18T10:04:38.958Z,0.50
2022-09-18T10:07:16.330Z,0.30
2022-09-18T10:09:51.936Z,0.30
2022-09-18T10:12:27.668Z,0.38
2022-09-18T10:15:04.512Z,0.40
2022-09-18T10:17:39.090Z,0.32
2022-09-18T10:20:07.790Z,0.25
2022-09-18T10:22:37.403Z,0.30
2022-09-18T10:25:08.282Z,0.30
2022-09-18T10:27:35.764Z,0.40
2022-09-18T10:30:12.529Z,0.22
2022-09-18T10:32:42.108Z,0.30
2022-09-18T10:35:42.351Z,0.30
2022-09-18T10:38:29.435Z,0.25
2022-09-18T10:40:57.305Z,0.30
2022-09-18T10:43:24.739Z,0.30
2022-09-18T10:45:56.983Z,0.30
2022-09-18T10:48:26.444Z,0.30
2022-09-18T10:50:54.819Z,0.30
2022-09-18T10:53:29.344Z,0.30
2022-09-18T10:56:03.038Z,0.20
2022-09-18T10:58:32.221Z,0.28
2022-09-18T11:01:04.194Z,0.20
2022-09-18T11:03:42.978Z,0.20
2022-09-18T11:06:17.607Z,0.20
2022-09-18T11:08:48.655Z,0.28
2022-09-18T11:11:23.322Z,0.30
2022-09-18T11:13:55.524Z,0.30
2022-09-18T11:16:26.699Z,0.30
2022-09-18T11:19:23.326Z,0.30
2022-09-18T11:21:54.942Z,0.30
2022-09-18T11:24:25.611Z,0.20
2022-09-18T11:26:54.745Z,0.30
2022-09-18T11:29:30.577Z,0.20
2022-09-18T11:32:04.781Z,0.20
2022-09-18T11:37:07.695Z,0.20
2022-09-18T11:39:38.713Z,0.30
2022-09-18T11:42:12.056Z,0.20
2022-09-18T11:44:40.499Z,0.20
2022-09-18T11:47:40.754Z,0.30
2022-09-18T11:50:15.117Z,0.20
2022-09-18T11:52:45.215Z,0.20
2022-09-18T11:55:26.810Z,0.20
2022-09-18T11:57:57.606Z,0.30
2022-09-18T12:00:29.897Z,0.30
2022-09-18T12:03:08.326Z,0.30
2022-09-18T12:05:52.397Z,0.20
2022-09-18T12:08:26.417Z,0.20
2022-09-18T12:11:08.112Z,0.20
2022-09-18T12:13:45.656Z,0.30
2022-09-18T12:16:18.929Z,0.40
2022-09-18T12:18:53.515Z,0.40
2022-09-18T12:21:26.794Z,0.30
2022-09-18T12:23:54.284Z,0.20
2022-09-18T12:26:31.128Z,0.30
2022-09-18T12:29:19.591Z,0.20
2022-09-18T12:31:54.997Z,0.30
2022-09-18T12:34:32.855Z,0.20
2022-09-18T12:37:15.977Z,0.20
2022-09-18T12:40:00.987Z,0.20
2022-09-18T12:42:38.466Z,0.30
2022-09-18T12:45:33.808Z,0.30
2022-09-18T12:48:18.198Z,0.30
2022-09-18T12:51:07.038Z,0.30
2022-09-18T12:53:45.761Z,0.30
2022-09-18T12:56:24.047Z,0.20
2022-09-18T12:59:07.427Z,0.30
2022-09-18T13:01:39.467Z,0.30
2022-09-18T13:04:17.483Z,0.20
2022-09-18T13:06:49.887Z,0.20
2022-09-18T13:09:25.670Z,0.77
2022-09-18T13:11:58.864Z,0.30
2022-09-18T13:14:29.718Z,0.30
2022-09-18T13:17:06.295Z,0.40
2022-09-18T13:19:36.208Z,0.40
2022-09-18T13:22:08.230Z,0.30
2022-09-18T13:24:39.785Z,0.22
2022-09-18T13:27:12.311Z,0.20
2022-09-18T13:29:56.415Z,0.20
2022-09-18T13:32:25.909Z,0.25
2022-09-18T13:34:56.409Z,0.20
2022-09-18T13:37:27.163Z,0.20
2022-09-18T13:40:09.684Z,0.30
2022-09-18T13:42:41.403Z,0.20
2022-09-18T13:45:19.590Z,0.30
2022-09-18T13:48:02.024Z,0.20
2022-09-18T13:50:31.078Z,0.30
2022-09-18T13:53:00.765Z,0.30
2022-09-18T13:55:35.079Z,0.28
2022-09-18T14:00:47.512Z,0.35
2022-09-18T14:03:36.377Z,0.32
2022-09-18T14:06:41.037Z,0.30
2022-09-18T14:09:27.139Z,0.40
2022-09-18T14:11:55.609Z,0.30
2022-09-18T14:14:25.690Z,0.30
2022-09-18T14:16:53.287Z,0.20
2022-09-18T14:19:32.054Z,0.30
2022-09-18T14:22:01.280Z,0.30
2022-09-18T14:24:58.867Z,0.20
2022-09-18T14:27:36.687Z,0.20
2022-09-18T14:30:16.870Z,0.20
2022-09-18T14:32:55.292Z,0.20
2022-09-18T14:35:31.097Z,0.20
2022-09-18T14:37:58.445Z,0.20
2022-09-18T14:40:28.209Z,0.20
2022-09-18T14:42:55.692Z,0.20
2022-09-18T14:45:29.766Z,0.20
2022-09-18T14:47:58.478Z,0.22
2022-09-18T14:50:32.195Z,0.20
2022-09-18T14:53:02.043Z,0.20
2022-09-18T14:55:39.427Z,0.13
2022-09-18T14:58:09.210Z,0.20
2022-09-18T15:00:39.122Z,0.20
2022-09-18T15:03:09.959Z,0.30
2022-09-18T15:05:37.831Z,0.35
2022-09-18T15:08:08.770Z,0.20
2022-09-18T15:10:40.823Z,0.20
2022-09-18T15:13:10.204Z,0.30
2022-09-18T15:15:40.343Z,0.20
2022-09-18T15:18:19.098Z,0.20
2022-09-18T15:20:49.706Z,0.30
2022-09-18T15:23:23.036Z,0.20
2022-09-18T15:25:53.881Z,0.10
2022-09-18T15:28:25.370Z,0.20
2022-09-18T15:30:57.247Z,0.20
2022-09-18T15:33:27.262Z,0.30
2022-09-18T15:35:56.433Z,0.30
2022-09-18T15:38:26.903Z,0.20
2022-09-18T15:40:55.653Z,0.22
2022-09-18T15:43:40.884Z,0.30
2022-09-18T15:46:09.825Z,0.30
2022-09-18T15:48:41.955Z,0.40
2022-09-18T15:51:13.866Z,0.20
2022-09-18T15:53:41.377Z,0.20
2022-09-18T15:56:20.806Z,0.20
2022-09-18T15:58:54.333Z,0.25
2022-09-18T16:01:25.767Z,0.30
2022-09-18T16:04:04.511Z,0.30
2022-09-18T16:06:40.466Z,0.30
2022-09-18T16:09:07.833Z,0.30
2022-09-18T16:11:44.491Z,0.20
2022-09-18T16:14:43.223Z,0.30
2022-09-18T16:17:47.986Z,0.40
2022-09-18T16:20:39.915Z,0.40
2022-09-18T16:23:19.878Z,0.40
2022-09-18T16:26:03.777Z,0.60
2022-09-18T16:28:35.273Z,0.50
2022-09-18T16:31:03.026Z,0.50
2022-09-18T16:33:33.017Z,0.47
2022-09-18T16:36:03.679Z,0.50
2022-09-18T16:38:35.009Z,0.43
2022-09-18T16:41:02.589Z,0.45
2022-09-18T16:43:30.170Z,0.50
2022-09-18T16:45:58.959Z,0.40
2022-09-18T16:48:29.885Z,0.40
2022-09-18T16:50:57.230Z,0.40
2022-09-18T16:53:24.563Z,0.40
2022-09-18T16:55:57.010Z,0.55
2022-09-18T16:58:26.551Z,0.60
2022-09-18T17:00:53.997Z,0.70
2022-09-18T17:03:22.875Z,0.47
2022-09-18T17:05:50.243Z,0.40
2022-09-18T17:08:17.684Z,0.47
2022-09-18T17:10:45.400Z,0.45
2022-09-18T17:13:13.513Z,0.45
2022-09-18T17:15:41.032Z,0.40
2022-09-18T17:18:08.480Z,0.40
2022-09-18T17:20:37.171Z,0.50
2022-09-18T17:23:04.546Z,0.50
2022-09-18T17:25:31.986Z,0.40
2022-09-18T17:27:59.318Z,0.40
2022-09-18T17:30:26.714Z,0.50
2022-09-18T17:32:54.034Z,0.50
2022-09-18T17:35:21.384Z,0.60
2022-09-18T17:37:51.579Z,0.60
2022-09-18T17:40:19.985Z,0.50
2022-09-18T17:42:47.372Z,0.40
2022-09-18T17:45:14.973Z,0.38
2022-09-18T17:47:42.355Z,0.40
2022-09-18T17:50:10.039Z,0.40
2022-09-18T17:52:37.641Z,0.50
2022-09-18T17:55:07.634Z,0.40
2022-09-18T17:57:36.262Z,0.40
2022-09-18T18:00:04.498Z,0.40
2022-09-18T18:02:33.051Z,0.40
2022-09-18T18:05:01.769Z,0.50
2022-09-18T18:07:29.272Z,0.43
2022-09-18T18:09:56.593Z,0.50
2022-09-18T18:12:25.249Z,0.50
2022-09-18T18:14:52.598Z,0.50
2022-09-18T18:17:20.120Z,0.40
2022-09-18T18:19:47.453Z,0.40
2022-09-18T18:22:14.778Z,0.40
2022-09-18T18:24:42.215Z,0.40
2022-09-18T18:27:09.634Z,0.40
2022-09-18T18:29:40.841Z,0.40
2022-09-18T18:32:08.195Z,0.40
2022-09-18T18:34:35.544Z,0.30
2022-09-18T18:37:04.543Z,0.40
2022-09-18T18:39:31.875Z,0.40
2022-09-18T18:41:59.224Z,0.40
2022-09-18T18:44:26.613Z,0.40
2022-09-18T18:46:55.504Z,0.40
2022-09-18T18:49:23.519Z,0.40
2022-09-18T18:51:51.764Z,0.50
2022-09-18T18:54:21.526Z,0.50
2022-09-18T18:56:49.618Z,0.40
2022-09-18T18:59:19.244Z,0.40
2022-09-18T19:01:47.231Z,0.40
2022-09-18T19:04:18.922Z,0.40
2022-09-18T19:06:46.555Z,0.50
2022-09-18T19:09:19.976Z,0.40
2022-09-18T19:11:49.166Z,0.50
2022-09-18T19:14:18.411Z,0.40
2022-09-18T19:16:46.635Z,0.40
2022-09-18T19:19:17.989Z,0.45
2022-09-18T19:21:45.691Z,0.40
2022-09-18T19:24:13.585Z,0.50
2022-09-18T19:26:42.715Z,0.50
2022-09-18T19:29:12.901Z,0.50
2022-09-18T19:31:42.565Z,0.40
2022-09-18T19:34:11.766Z,0.40
2022-09-18T19:36:41.169Z,0.57
2022-09-18T19:39:12.070Z,0.40
2022-09-18T19:41:44.299Z,0.43
2022-09-18T19:44:15.761Z,0.40
2022-09-18T19:46:43.283Z,0.40
2022-09-18T19:49:16.942Z,0.50
2022-09-18T19:51:45.873Z,0.50
2022-09-18T19:54:13.255Z,0.50
2022-09-18T19:56:46.901Z,0.50
2022-09-18T19:59:14.351Z,0.47
2022-09-18T20:01:42.231Z,0.70
2022-09-18T20:04:10.025Z,0.40
2022-09-18T20:06:38.727Z,0.40
2022-09-18T20:09:07.394Z,0.50
2022-09-18T20:11:35.127Z,0.45
2022-09-18T20:14:03.291Z,0.50
2022-09-18T20:16:30.719Z,0.40
2022-09-18T20:18:58.121Z,0.40
2022-09-18T20:21:25.604Z,0.40
2022-09-18T20:23:56.923Z,0.45
2022-09-18T20:26:26.612Z,0.50
2022-09-18T20:28:53.961Z,0.50
2022-09-18T20:31:23.692Z,0.50
2022-09-18T20:33:55.464Z,0.50
2022-09-18T20:36:23.175Z,0.45
2022-09-18T20:38:52.081Z,0.50
2022-09-18T20:41:21.022Z,0.50
2022-09-18T20:43:53.530Z,0.40
2022-09-18T21:00:54.090Z,0.50
2022-09-18T21:03:22.349Z,0.50
2022-09-18T21:06:02.742Z,0.40
2022-09-18T21:08:42.828Z,0.50
2022-09-18T21:11:10.676Z,0.50
2022-09-18T21:13:43.406Z,0.50
2022-09-18T21:16:12.192Z,0.45
2022-09-18T21:18:41.008Z,0.50
2022-09-18T21:21:10.779Z,0.50
2022-09-18T21:23:56.187Z,0.50
2022-09-18T21:26:25.222Z,0.60
2022-09-18T21:28:53.525Z,0.50
2022-09-18T21:31:23.037Z,0.50
2022-09-18T21:33:52.796Z,0.50
2022-09-18T21:36:21.631Z,0.60
2022-09-18T21:38:50.798Z,0.50
2022-09-18T21:41:19.429Z,0.50
2022-09-18T21:43:50.990Z,0.50
2022-09-18T21:46:20.268Z,0.40
2022-09-18T21:48:52.893Z,0.40
2022-09-18T21:51:20.793Z,0.50
2022-09-18T21:53:48.295Z,0.50
2022-09-18T21:56:18.314Z,0.40
2022-09-18T21:58:47.251Z,0.50
2022-09-18T22:01:17.697Z,0.40
2022-09-18T22:03:50.523Z,0.50
2022-09-18T22:06:20.335Z,0.50
2022-09-18T22:08:48.763Z,0.50
2022-09-18T22:11:17.033Z,0.50
2022-09-18T22:13:44.375Z,0.60
2022-09-18T22:16:11.791Z,0.60
2022-09-18T22:18:40.678Z,0.60
2022-09-18T22:21:20.313Z,0.60
2022-09-18T22:23:54.995Z,0.55
2022-09-18T22:26:23.990Z,0.50
2022-09-18T22:28:53.350Z,0.55
2022-09-18T22:31:21.775Z,0.60
2022-09-18T22:33:50.303Z,0.68
2022-09-18T22:36:17.640Z,0.60
2022-09-18T22:38:44.987Z,0.52
2022-09-18T22:41:13.777Z,0.50
2022-09-18T22:43:41.325Z,0.60
2022-09-18T22:46:11.295Z,0.60
2022-09-18T22:48:39.354Z,0.50
2022-09-18T22:51:08.676Z,0.50
2022-09-18T22:53:36.909Z,0.60
2022-09-18T22:56:06.315Z,0.50
2022-09-18T22:58:35.725Z,0.50
2022-09-18T23:01:08.091Z,0.50
2022-09-18T23:03:36.756Z,0.60
2022-09-18T23:06:06.256Z,0.70
2022-09-18T23:08:35.305Z,0.60
2022-09-18T23:11:03.803Z,0.60
2022-09-18T23:13:32.343Z,0.50
2022-09-18T23:16:06.177Z,0.40
2022-09-18T23:18:34.212Z,0.55
2022-09-18T23:21:03.822Z,0.45
2022-09-18T23:23:33.260Z,0.40
2022-09-18T23:26:05.883Z,0.50
2022-09-18T23:28:34.628Z,0.50
2022-09-18T23:31:08.439Z,0.60
2022-09-18T23:33:36.210Z,0.52
2022-09-18T23:36:11.611Z,0.40
2022-09-18T23:38:39.487Z,0.30
2022-09-18T23:41:09.372Z,0.30
2022-09-18T23:43:37.563Z,0.60
2022-09-18T23:46:07.899Z,0.30
2022-09-18T23:48:35.299Z,0.30
2022-09-18T23:51:03.599Z,0.25
2022-09-18T23:53:37.929Z,0.30
2022-09-18T23:56:07.861Z,0.30
2022-09-18T23:58:35.549Z,0.30
